createdAt,value
2022-09-07T00:00:53.822Z,17.06
2022-09-07T00:03:21.715Z,17.10
2022-09-07T00:05:51.152Z,17.00
2022-09-07T00:08:22.394Z,17.00
2022-09-07T00:10:54.881Z,17.02
2022-09-07T00:13:23.167Z,16.92
2022-09-07T00:15:50.328Z,16.95
2022-09-07T00:18:17.509Z,17.07
2022-09-07T00:20:45.400Z,17.06
2022-09-07T00:23:12.764Z,17.05
2022-09-07T00:25:40.738Z,17.05
2022-09-07T00:28:08.902Z,17.07
2022-09-07T00:30:42.325Z,17.13
2022-09-07T00:33:10.373Z,17.00
2022-09-07T00:35:43.348Z,17.04
2022-09-07T00:38:10.311Z,17.08
2022-09-07T00:40:37.328Z,17.10
2022-09-07T00:43:05.316Z,17.02
2022-09-07T00:45:33.093Z,17.08
2022-09-07T00:48:16.958Z,17.04
2022-09-07T00:50:56.869Z,17.08
2022-09-07T00:53:30.956Z,17.10
2022-09-07T00:56:00.199Z,17.08
2022-09-07T00:58:28.263Z,17.06
2022-09-07T01:00:56.229Z,17.06
2022-09-07T01:03:31.011Z,17.11
2022-09-07T01:06:12.012Z,17.09
2022-09-07T01:08:39.801Z,17.15
2022-09-07T01:11:06.912Z,17.07
2022-09-07T01:13:34.256Z,17.13
2022-09-07T01:16:26.480Z,17.13
2022-09-07T01:19:28.106Z,17.17
2022-09-07T01:22:26.956Z,17.14
2022-09-07T01:25:28.752Z,17.24
2022-09-07T01:28:11.130Z,17.29
2022-09-07T01:30:41.941Z,17.32
2022-09-07T01:34:04.424Z,17.34
2022-09-07T01:37:05.465Z,17.32
2022-09-07T01:39:45.895Z,17.28
2022-09-07T01:42:15.657Z,17.32
2022-09-07T01:44:46.724Z,17.32
2022-09-07T01:47:31.667Z,17.38
2022-09-07T01:50:02.755Z,17.36
2022-09-07T01:52:44.634Z,17.39
2022-09-07T01:55:22.204Z,17.46
2022-09-07T01:58:01.195Z,17.47
2022-09-07T02:00:28.554Z,17.46
2022-09-07T02:03:08.422Z,17.39
2022-09-07T02:05:58.467Z,17.32
2022-09-07T02:08:42.446Z,17.36
2022-09-07T02:11:36.400Z,17.30
2022-09-07T02:14:29.195Z,17.27
2022-09-07T02:17:08.927Z,17.22
2022-09-07T02:19:44.244Z,17.19
2022-09-07T02:22:17.371Z,17.14
2022-09-07T02:24:51.989Z,17.10
2022-09-07T02:27:51.906Z,17.10
2022-09-07T02:30:18.932Z,17.07
2022-09-07T02:32:46.005Z,17.09
2022-09-07T02:35:13.693Z,17.04
2022-09-07T02:37:43.000Z,17.05
2022-09-07T02:40:10.826Z,17.01
2022-09-07T02:42:39.348Z,16.94
2022-09-07T02:45:10.221Z,16.94
2022-09-07T02:47:52.233Z,16.98
2022-09-07T02:50:37.224Z,16.95
2022-09-07T02:53:33.559Z,16.87
2022-09-07T02:56:35.980Z,16.86
2022-09-07T02:59:36.288Z,16.86
2022-09-07T03:02:35.691Z,16.82
2022-09-07T03:05:10.606Z,16.82
2022-09-07T03:07:49.451Z,16.76
2022-09-07T03:10:18.428Z,16.77
2022-09-07T03:12:50.609Z,16.84
2022-09-07T03:15:24.250Z,16.85
2022-09-07T03:17:52.220Z,16.86
2022-09-07T03:20:20.666Z,16.87
2022-09-07T03:22:49.880Z,16.86
2022-09-07T03:25:17.349Z,16.88
2022-09-07T03:27:44.344Z,16.86
2022-09-07T03:30:13.645Z,16.88
2022-09-07T03:32:40.661Z,16.88
2022-09-07T03:35:09.103Z,16.78
2022-09-07T03:37:37.635Z,16.84
2022-09-07T03:40:07.789Z,16.84
2022-09-07T03:42:35.202Z,16.79
2022-09-07T03:45:02.396Z,16.78
2022-09-07T03:47:29.384Z,16.79
2022-09-07T03:49:56.400Z,16.78
2022-09-07T03:52:23.324Z,16.84
2022-09-07T03:54:50.270Z,16.85
2022-09-07T03:57:17.259Z,16.82
2022-09-07T03:59:44.247Z,16.80
2022-09-07T04:02:11.221Z,16.76
2022-09-07T04:04:38.272Z,16.76
2022-09-07T04:07:06.665Z,16.75
2022-09-07T04:09:33.594Z,16.65
2022-09-07T04:12:00.603Z,16.61
2022-09-07T04:14:27.507Z,16.58
2022-09-07T04:16:54.519Z,16.60
2022-09-07T04:19:21.812Z,16.52
2022-09-07T04:21:48.881Z,16.44
2022-09-07T04:24:17.664Z,16.42
2022-09-07T04:26:45.573Z,16.32
2022-09-07T04:29:13.285Z,16.31
2022-09-07T04:31:40.339Z,16.32
2022-09-07T04:34:07.895Z,16.26
2022-09-07T04:36:35.273Z,16.18
2022-09-07T04:39:05.455Z,16.17
2022-09-07T04:41:34.800Z,16.13
2022-09-07T04:44:03.552Z,16.11
2022-09-07T04:46:36.533Z,16.07
2022-09-07T04:49:08.400Z,16.03
2022-09-07T04:51:37.731Z,15.99
2022-09-07T04:54:06.170Z,16.00
2022-09-07T04:56:33.917Z,16.05
2022-09-07T04:59:04.829Z,16.07
2022-09-07T05:01:31.824Z,16.08
2022-09-07T05:04:01.628Z,16.12
2022-09-07T05:06:29.270Z,16.12
2022-09-07T05:08:58.088Z,16.09
2022-09-07T05:11:29.217Z,16.13
2022-09-07T05:13:59.227Z,16.13
2022-09-07T05:16:27.607Z,16.11
2022-09-07T05:19:01.410Z,16.12
2022-09-07T05:21:31.931Z,16.10
2022-09-07T05:24:00.419Z,16.09
2022-09-07T05:26:32.704Z,16.07
2022-09-07T05:31:49.865Z,16.10
2022-09-07T05:34:32.850Z,16.06
2022-09-07T05:37:01.031Z,16.02
2022-09-07T05:39:28.546Z,16.02
2022-09-07T05:41:56.908Z,16.03
2022-09-07T05:47:11.436Z,15.96
2022-09-07T05:49:38.375Z,15.94
2022-09-07T05:52:05.451Z,15.96
2022-09-07T05:54:32.447Z,15.97
2022-09-07T05:56:59.360Z,15.94
2022-09-07T05:59:26.750Z,15.94
2022-09-07T06:01:53.781Z,15.90
2022-09-07T06:04:20.815Z,15.86
2022-09-07T06:07:17.582Z,15.83
2022-09-07T06:09:35.520Z,15.91
2022-09-07T06:12:05.299Z,15.88
2022-09-07T06:14:33.329Z,15.87
2022-09-07T06:17:00.305Z,15.92
2022-09-07T06:19:27.307Z,16.00
2022-09-07T06:21:54.300Z,15.91
2022-09-07T06:24:21.306Z,15.93
2022-09-07T06:26:48.239Z,16.00
2022-09-07T06:29:15.130Z,16.02
2022-09-07T06:34:29.325Z,16.00
2022-09-07T06:36:56.572Z,16.00
2022-09-07T06:39:23.466Z,16.08
2022-09-07T06:44:25.205Z,16.09
2022-09-07T06:47:07.489Z,16.15
2022-09-07T06:49:34.491Z,16.19
2022-09-07T06:52:01.484Z,16.23
2022-09-07T06:57:16.497Z,16.29
2022-09-07T06:59:43.409Z,16.51
2022-09-07T07:02:14.884Z,16.50
2022-09-07T07:04:41.862Z,16.75
2022-09-07T07:07:14.931Z,16.77
2022-09-07T07:09:42.413Z,16.90
2022-09-07T07:12:10.762Z,17.04
2022-09-07T07:14:41.087Z,17.14
2022-09-07T07:17:11.192Z,17.31
2022-09-07T07:19:38.304Z,17.36
2022-09-07T07:22:23.901Z,17.40
2022-09-07T07:24:52.353Z,17.32
2022-09-07T07:27:21.403Z,17.49
2022-09-07T07:29:48.288Z,17.59
2022-09-07T07:32:15.452Z,17.69
2022-09-07T07:35:01.775Z,17.83
2022-09-07T07:37:28.670Z,18.03
2022-09-07T07:42:43.664Z,18.14
2022-09-07T07:47:59.128Z,18.02
2022-09-07T07:50:33.915Z,18.31
2022-09-07T07:55:48.829Z,18.37
2022-09-07T07:58:15.718Z,18.44
2022-09-07T08:00:58.097Z,18.31
2022-09-07T08:03:26.091Z,18.42
2022-09-07T08:05:54.599Z,18.49
2022-09-07T08:08:23.555Z,18.57
2022-09-07T08:10:51.023Z,18.58
2022-09-07T08:13:19.001Z,18.78
2022-09-07T08:15:46.323Z,18.91
2022-09-07T08:18:15.671Z,18.91
2022-09-07T08:20:43.098Z,18.97
2022-09-07T08:23:10.564Z,19.12
2022-09-07T08:25:37.521Z,19.03
2022-09-07T08:28:04.602Z,19.26
2022-09-07T08:30:31.518Z,19.12
2022-09-07T08:32:58.425Z,19.12
2022-09-07T08:35:25.463Z,19.27
2022-09-07T08:37:52.311Z,19.42
2022-09-07T08:40:20.535Z,19.29
2022-09-07T08:42:53.333Z,19.37
2022-09-07T08:45:48.248Z,19.44
2022-09-07T08:48:20.989Z,19.50
2022-09-07T08:51:08.749Z,19.28
2022-09-07T08:53:43.867Z,19.44
2022-09-07T08:56:33.430Z,19.56
2022-09-07T08:59:21.727Z,19.56
2022-09-07T09:05:16.286Z,19.68
2022-09-07T09:08:02.967Z,19.91
2022-09-07T09:11:16.257Z,20.33
2022-09-07T09:14:10.860Z,20.33
2022-09-07T09:16:51.279Z,20.66
2022-09-07T09:19:30.678Z,20.78
2022-09-07T09:22:11.019Z,21.03
2022-09-07T09:24:41.851Z,21.05
2022-09-07T09:27:10.393Z,21.22
2022-09-07T09:29:37.260Z,21.47
2022-09-07T09:32:41.575Z,21.75
2022-09-07T09:35:35.529Z,21.75
2022-09-07T09:38:05.813Z,22.21
2022-09-07T09:40:35.447Z,22.48
2022-09-07T09:43:21.763Z,22.63
2022-09-07T09:48:41.485Z,22.72
2022-09-07T09:54:01.719Z,22.73
2022-09-07T09:56:46.252Z,23.07
2022-09-07T10:05:37.230Z,23.50
2022-09-07T10:08:25.332Z,23.45
2022-09-07T10:11:09.763Z,23.81
2022-09-07T10:13:46.888Z,23.69
2022-09-07T10:16:15.008Z,24.15
2022-09-07T10:18:57.200Z,23.89
2022-09-07T10:21:32.299Z,23.52
2022-09-07T10:24:05.244Z,23.70
2022-09-07T10:26:35.848Z,23.90
2022-09-07T10:29:29.600Z,24.24
2022-09-07T10:32:52.747Z,24.36
2022-09-07T10:35:46.100Z,23.98
2022-09-07T10:38:25.869Z,24.51
2022-09-07T10:41:08.173Z,24.31
2022-09-07T10:43:52.572Z,24.44
2022-09-07T10:47:03.979Z,24.63
2022-09-07T10:52:45.786Z,25.11
2022-09-07T10:55:26.193Z,24.74
2022-09-07T10:58:08.359Z,24.49
2022-09-07T11:00:58.036Z,24.80
2022-09-07T11:04:03.458Z,24.38
2022-09-07T11:06:41.661Z,24.53
2022-09-07T11:09:31.888Z,24.78
2022-09-07T11:12:14.575Z,25.26
2022-09-07T11:14:56.319Z,25.34
2022-09-07T11:17:28.271Z,25.67
2022-09-07T11:20:14.300Z,25.84
2022-09-07T11:23:02.562Z,26.06
2022-09-07T11:26:11.292Z,25.62
2022-09-07T11:31:53.585Z,25.04
2022-09-07T11:34:35.631Z,24.65
2022-09-07T11:37:17.218Z,24.51
2022-09-07T11:40:17.268Z,24.66
2022-09-07T11:42:55.789Z,23.62
2022-09-07T11:45:34.004Z,24.16
2022-09-07T11:48:38.195Z,24.10
2022-09-07T11:51:40.091Z,24.06
2022-09-07T11:54:43.357Z,23.77
2022-09-07T11:57:16.327Z,23.52
2022-09-07T12:00:38.148Z,23.61
2022-09-07T12:03:30.821Z,23.29
2022-09-07T12:06:27.944Z,23.30
2022-09-07T12:09:22.966Z,23.08
2022-09-07T12:12:44.103Z,23.21
2022-09-07T12:15:36.280Z,23.31
2022-09-07T12:18:54.249Z,23.54
2022-09-07T12:21:37.852Z,23.55
2022-09-07T12:24:04.938Z,23.72
2022-09-07T12:26:35.512Z,23.65
2022-09-07T12:29:03.774Z,23.80
2022-09-07T12:32:08.321Z,24.00
2022-09-07T12:34:51.541Z,24.04
2022-09-07T12:37:27.537Z,23.83
2022-09-07T12:40:32.105Z,23.96
2022-09-07T12:43:14.250Z,24.02
2022-09-07T12:45:41.859Z,23.92
2022-09-07T12:48:17.683Z,23.86
2022-09-07T12:54:55.791Z,23.85
2022-09-07T12:57:43.168Z,23.99
2022-09-07T13:00:25.742Z,24.01
2022-09-07T13:03:49.427Z,23.90
2022-09-07T13:06:16.358Z,23.95
2022-09-07T13:09:03.021Z,23.98
2022-09-07T13:11:39.977Z,23.91
2022-09-07T13:14:20.681Z,23.99
2022-09-07T13:19:51.394Z,24.15
2022-09-07T13:22:33.440Z,24.09
2022-09-07T13:25:21.837Z,24.22
2022-09-07T13:28:06.070Z,24.24
2022-09-07T13:30:53.490Z,24.13
2022-09-07T13:33:29.391Z,24.04
2022-09-07T13:36:01.016Z,24.00
2022-09-07T13:38:30.262Z,23.88
2022-09-07T13:41:07.468Z,23.60
2022-09-07T13:43:35.391Z,23.58
2022-09-07T13:46:32.595Z,23.41
2022-09-07T13:49:22.824Z,23.62
2022-09-07T13:52:07.975Z,23.61
2022-09-07T13:55:00.819Z,23.78
2022-09-07T13:58:13.805Z,23.78
2022-09-07T14:01:04.594Z,23.79
2022-09-07T14:03:43.786Z,23.82
2022-09-07T14:06:20.451Z,23.82
2022-09-07T14:09:13.298Z,23.61
2022-09-07T14:11:50.761Z,23.51
2022-09-07T14:14:30.117Z,23.55
2022-09-07T14:17:05.173Z,23.48
2022-09-07T14:19:37.902Z,23.51
2022-09-07T14:22:18.288Z,23.57
2022-09-07T14:24:54.978Z,23.44
2022-09-07T14:27:35.382Z,23.47
2022-09-07T14:30:27.998Z,23.31
2022-09-07T14:32:59.893Z,23.06
2022-09-07T14:35:33.392Z,23.29
2022-09-07T14:41:15.888Z,23.14
2022-09-07T14:43:57.104Z,23.12
2022-09-07T14:46:37.175Z,23.17
2022-09-07T14:49:20.234Z,23.10
2022-09-07T14:51:48.725Z,23.01
2022-09-07T14:54:34.920Z,23.19
2022-09-07T14:57:30.424Z,23.19
2022-09-07T14:59:58.785Z,23.36
2022-09-07T15:02:35.286Z,23.38
2022-09-07T15:05:28.405Z,23.29
2022-09-07T15:07:58.916Z,23.35
2022-09-07T15:10:32.983Z,23.34
2022-09-07T15:13:01.999Z,23.41
2022-09-07T15:15:39.462Z,23.46
2022-09-07T15:18:44.915Z,23.35
2022-09-07T15:21:11.771Z,23.29
2022-09-07T15:23:38.711Z,23.41
2022-09-07T15:26:06.363Z,23.44
2022-09-07T15:34:12.031Z,23.45
2022-09-07T15:36:50.929Z,23.47
2022-09-07T15:39:21.423Z,23.41
2022-09-07T15:41:48.673Z,23.26
2022-09-07T15:44:17.910Z,23.44
2022-09-07T15:49:35.306Z,23.47
2022-09-07T15:52:06.156Z,23.38
2022-09-07T15:54:36.574Z,23.38
2022-09-07T15:59:53.049Z,23.10
2022-09-07T16:05:07.936Z,23.28
2022-09-07T16:10:22.175Z,23.32
2022-09-07T16:13:16.167Z,23.34
2022-09-07T16:15:45.230Z,23.19
2022-09-07T16:18:17.664Z,23.11
2022-09-07T16:20:46.163Z,23.15
2022-09-07T16:23:16.002Z,23.11
2022-09-07T16:25:54.891Z,23.08
2022-09-07T16:28:21.830Z,23.06
2022-09-07T16:30:48.711Z,23.00
2022-09-07T16:33:15.674Z,23.04
2022-09-07T16:35:42.558Z,23.03
2022-09-07T16:40:56.320Z,22.91
2022-09-07T16:43:23.338Z,22.88
2022-09-07T16:46:05.365Z,22.91
2022-09-07T16:48:35.115Z,22.87
2022-09-07T16:51:05.699Z,22.80
2022-09-07T16:53:35.893Z,22.67
2022-09-07T16:56:09.369Z,22.65
2022-09-07T16:58:45.997Z,22.61
2022-09-07T17:01:16.678Z,22.57
2022-09-07T17:03:44.447Z,22.49
2022-09-07T17:06:13.919Z,22.39
2022-09-07T17:08:41.593Z,22.35
2022-09-07T17:11:12.416Z,22.24
2022-09-07T17:13:41.172Z,22.15
2022-09-07T17:16:17.160Z,22.08
2022-09-07T17:21:36.947Z,21.95
2022-09-07T17:24:06.528Z,21.87
2022-09-07T17:26:34.508Z,21.78
2022-09-07T17:29:01.623Z,21.70
2022-09-07T17:34:19.621Z,21.57
2022-09-07T17:36:47.216Z,21.52
2022-09-07T17:39:16.883Z,21.41
2022-09-07T17:41:47.262Z,21.30
2022-09-07T17:44:14.377Z,21.25
2022-09-07T17:46:41.366Z,21.22
2022-09-07T17:49:14.145Z,21.18
2022-09-07T17:51:41.379Z,21.09
2022-09-07T17:54:13.414Z,20.92
2022-09-07T17:56:41.856Z,20.87
2022-09-07T18:01:56.689Z,20.75
2022-09-07T18:04:24.327Z,20.66
2022-09-07T18:06:53.795Z,20.48
2022-09-07T18:09:21.491Z,20.46
2022-09-07T18:11:49.591Z,20.34
2022-09-07T18:14:17.894Z,20.31
2022-09-07T18:16:49.258Z,20.14
2022-09-07T18:19:17.942Z,20.19
2022-09-07T18:21:45.432Z,20.13
2022-09-07T18:24:16.976Z,20.02
2022-09-07T18:26:51.499Z,19.98
2022-09-07T18:29:33.558Z,19.98
2022-09-07T18:32:08.308Z,19.88
2022-09-07T18:34:37.253Z,19.86
2022-09-07T18:37:04.927Z,19.76
2022-09-07T18:39:33.294Z,19.73
2022-09-07T18:42:00.285Z,19.65
2022-09-07T18:47:22.285Z,19.57
2022-09-07T18:49:51.582Z,19.60
2022-09-07T18:55:08.453Z,19.48
2022-09-07T18:57:36.547Z,19.47
2022-09-07T19:00:06.973Z,19.44
2022-09-07T19:02:33.983Z,19.38
2022-09-07T19:07:48.081Z,19.38
2022-09-07T19:10:16.692Z,19.33
2022-09-07T19:12:45.886Z,19.28
2022-09-07T19:15:13.687Z,19.25
2022-09-07T19:17:40.764Z,19.21
2022-09-07T19:20:08.396Z,19.23
2022-09-07T19:22:35.269Z,19.17
2022-09-07T19:25:02.132Z,19.00
2022-09-07T19:27:29.073Z,19.05
2022-09-07T19:29:55.964Z,19.00
2022-09-07T19:32:22.829Z,18.96
2022-09-07T19:34:54.322Z,18.75
2022-09-07T19:37:25.604Z,18.79
2022-09-07T19:39:54.998Z,18.80
2022-09-07T19:42:23.474Z,18.75
2022-09-07T19:44:50.947Z,18.65
2022-09-07T19:47:18.573Z,18.58
2022-09-07T19:49:45.568Z,18.51
2022-09-07T19:52:12.548Z,18.54
2022-09-07T19:54:40.369Z,18.47
2022-09-07T19:57:07.260Z,18.38
2022-09-07T19:59:34.357Z,18.41
2022-09-07T20:02:01.265Z,18.29
2022-09-07T20:04:28.260Z,18.26
2022-09-07T20:06:56.218Z,18.26
2022-09-07T20:09:23.144Z,18.22
2022-09-07T20:11:50.168Z,18.20
2022-09-07T20:14:18.972Z,18.16
2022-09-07T20:16:45.931Z,18.10
2022-09-07T20:19:14.864Z,18.09
2022-09-07T20:21:42.845Z,18.09
2022-09-07T20:24:12.398Z,18.01
2022-09-07T20:26:39.577Z,17.94
2022-09-07T20:31:54.346Z,17.86
2022-09-07T20:34:21.413Z,17.81
2022-09-07T20:36:51.860Z,17.85
2022-09-07T20:39:20.225Z,17.84
2022-09-07T20:41:47.674Z,17.86
2022-09-07T20:44:15.098Z,17.80
2022-09-07T20:46:42.334Z,17.69
2022-09-07T20:49:09.581Z,17.63
2022-09-07T20:51:36.589Z,17.53
2022-09-07T20:54:03.695Z,17.58
2022-09-07T20:56:31.042Z,17.58
2022-09-07T20:59:00.504Z,17.48
2022-09-07T21:01:29.447Z,17.50
2022-09-07T21:03:59.029Z,17.45
2022-09-07T21:06:28.004Z,17.39
2022-09-07T21:08:57.022Z,17.39
2022-09-07T21:11:31.017Z,17.41
2022-09-07T21:14:17.710Z,17.41
2022-09-07T21:16:44.607Z,17.37
2022-09-07T21:19:11.472Z,17.39
2022-09-07T21:21:43.274Z,17.29
2022-09-07T21:24:21.431Z,17.30
2022-09-07T21:26:50.428Z,17.16
2022-09-07T21:29:23.672Z,17.27
2022-09-07T21:31:53.226Z,17.20
2022-09-07T21:34:20.396Z,17.21
2022-09-07T21:36:47.436Z,17.10
2022-09-07T21:39:15.285Z,17.18
2022-09-07T21:41:43.617Z,17.10
2022-09-07T21:44:15.978Z,17.10
2022-09-07T21:46:44.045Z,17.05
2022-09-07T21:49:11.264Z,17.04
2022-09-07T21:51:38.160Z,17.08
2022-09-07T21:54:05.138Z,17.10
2022-09-07T21:56:32.250Z,17.16
2022-09-07T21:59:01.832Z,17.18
2022-09-07T22:01:30.594Z,17.11
2022-09-07T22:04:00.897Z,17.09
2022-09-07T22:06:28.885Z,17.16
2022-09-07T22:08:56.758Z,17.21
2022-09-07T22:11:26.574Z,17.16
2022-09-07T22:14:02.623Z,17.19
2022-09-07T22:16:31.599Z,17.19
2022-09-07T22:18:58.830Z,17.23
2022-09-07T22:21:28.759Z,17.27
2022-09-07T22:24:00.617Z,17.29
2022-09-07T22:26:31.029Z,17.30
2022-09-07T22:28:58.958Z,17.34
2022-09-07T22:31:37.433Z,17.37
2022-09-07T22:34:08.322Z,17.28
2022-09-07T22:36:42.511Z,17.35
2022-09-07T22:39:14.467Z,17.36
2022-09-07T22:41:42.623Z,17.28
2022-09-07T22:44:18.458Z,17.28
2022-09-07T22:46:46.979Z,17.30
2022-09-07T22:49:16.781Z,17.32
2022-09-07T22:51:44.357Z,17.34
2022-09-07T22:54:11.546Z,17.38
2022-09-07T22:56:39.003Z,17.37
2022-09-07T22:59:08.049Z,17.37
2022-09-07T23:01:36.116Z,17.41
2022-09-07T23:04:04.363Z,17.43
2022-09-07T23:06:37.941Z,17.42
2022-09-07T23:09:15.095Z,17.48
2022-09-07T23:11:43.007Z,17.40
2022-09-07T23:14:19.628Z,17.43
2022-09-07T23:16:46.788Z,17.43
2022-09-07T23:19:16.893Z,17.40
2022-09-07T23:21:44.354Z,17.42
2022-09-07T23:24:17.244Z,17.46
2022-09-07T23:26:44.664Z,17.44
2022-09-07T23:29:13.659Z,17.46
2022-09-07T23:31:41.390Z,17.46
2022-09-07T23:34:09.159Z,17.47
2022-09-07T23:36:37.146Z,17.47
2022-09-07T23:39:04.453Z,17.47
2022-09-07T23:41:31.596Z,17.51
2022-09-07T23:43:58.847Z,17.45
2022-09-07T23:46:25.808Z,17.45
2022-09-07T23:48:52.885Z,17.45
2022-09-07T23:51:23.891Z,17.46
2022-09-07T23:53:52.437Z,17.43
2022-09-07T23:56:20.521Z,17.42
2022-09-07T23:58:47.740Z,17.43
